Time;durP1;ratioP1;P1;durP2;ratioP2;P2;SDS_P1;SDS_P2;PMS_P1;PMS_P2;Temp;Humidity;BMP_temperature;BMP_pressure;BME280_temperature;BME280_humidity;BME280_pressure;Samples;Min_cycle;Max_cycle;Signal;HPM_P1;HPM_P2
2023/06/08 00:01:39;;;;;;;9.05;8.25;;;;;;;18.99;54.98;95445.34;4946118;28;20213;-92
2023/06/08 00:04:14;;;;;;;8.52;7.72;;;;;;;18.98;54.94;95448.97;4999143;28;20213;-90
2023/06/08 00:12:58;;;;;;;8.60;7.75;;;;;;;19.26;54.25;95440.34;4925449;28;20207;-90
2023/06/08 00:15:27;;;;;;;8.40;7.70;;;;;;;19.38;54.06;95435.06;4998110;28;20936;-91
2023/06/08 00:18:27;;;;;;;9.55;8.57;;;;;;;19.37;54.30;95434.28;5002329;28;20737;-90
2023/06/08 00:21:12;;;;;;;9.13;7.93;;;;;;;19.30;54.53;95433.63;5006207;28;20209;-90
2023/06/08 00:23:48;;;;;;;10.68;8.48;;;;;;;19.28;54.54;95435.69;5011361;28;20211;-92
2023/06/08 00:26:17;;;;;;;8.27;7.55;;;;;;;19.30;54.33;95431.81;5011135;28;20210;-91
2023/06/08 00:28:49;;;;;;;8.35;7.53;;;;;;;19.26;54.27;95429.91;5011756;28;20703;-92
2023/06/08 00:31:25;;;;;;;8.50;7.70;;;;;;;19.27;54.82;95424.44;5011008;28;20198;-91
2023/06/08 00:34:01;;;;;;;9.70;7.90;;;;;;;19.32;54.52;95424.53;5011188;28;20778;-91
2023/06/08 00:36:38;;;;;;;9.70;8.00;;;;;;;19.21;54.59;95422.78;5010380;28;20562;-91
2023/06/08 00:39:10;;;;;;;8.30;7.60;;;;;;;18.96;55.68;95427.53;5010860;28;20226;-91
2023/06/08 00:41:44;;;;;;;8.25;7.55;;;;;;;18.85;55.64;95433.59;5010854;28;20242;-89
2023/06/08 00:44:16;;;;;;;8.55;7.72;;;;;;;18.72;56.48;95432.03;5010748;28;20203;-89
2023/06/08 00:49:32;;;;;;;8.60;7.72;;;;;;;18.92;55.95;95424.59;5009610;28;20230;-90
2023/06/08 00:52:11;;;;;;;8.13;7.43;;;;;;;19.04;55.79;95415.94;5016305;28;20206;-89
2023/06/08 00:54:39;;;;;;;8.93;8.13;;;;;;;18.79;56.44;95419.66;5018993;28;20229;-89
2023/06/08 00:57:14;;;;;;;8.43;7.55;;;;;;;18.78;56.67;95419.88;5010674;28;20241;-89
2023/06/08 00:59:42;;;;;;;9.38;7.80;;;;;;;18.72;56.38;95420.78;5010777;28;20229;-89
2023/06/08 01:02:36;;;;;;;8.57;7.78;;;;;;;18.46;57.36;95432.50;5010571;28;20277;-89
2023/06/08 01:05:12;;;;;;;8.43;7.30;;;;;;;18.39;57.78;95424.00;5010563;28;20658;-89
2023/06/08 01:07:53;;;;;;;8.50;7.70;;;;;;;18.47;57.29;95424.44;5010257;28;20199;-89
2023/06/08 01:10:32;;;;;;;8.68;7.88;;;;;;;18.36;58.08;95429.69;5010496;28;20276;-90
2023/06/08 01:13:11;;;;;;;8.32;7.63;;;;;;;18.49;57.70;95419.78;5010735;28;20207;-89
2023/06/08 01:15:50;;;;;;;8.48;7.78;;;;;;;18.29;58.03;95427.97;4998323;28;20286;-90
2023/06/08 01:18:26;;;;;;;8.20;7.50;;;;;;;18.32;58.11;95418.91;5003441;28;20229;-89
2023/06/08 01:21:07;;;;;;;8.43;7.63;;;;;;;18.35;58.31;95412.44;5003188;28;20218;-89
2023/06/08 01:23:49;;;;;;;8.68;7.85;;;;;;;18.42;57.52;95405.31;5010000;28;20293;-89
2023/06/08 01:26:27;;;;;;;8.10;7.40;;;;;;;18.49;57.92;95408.56;5010545;28;20318;-89
2023/06/08 01:29:00;;;;;;;8.50;7.78;;;;;;;18.36;58.14;95409.63;5009366;28;20230;-89
2023/06/08 01:31:27;;;;;;;8.73;7.68;;;;;;;18.39;58.03;95416.19;5010631;28;20195;-89
2023/06/08 01:33:58;;;;;;;8.35;7.60;;;;;;;18.30;58.25;95419.13;5010716;28;20804;-89
2023/06/08 01:36:37;;;;;;;8.43;7.72;;;;;;;18.32;58.15;95421.50;5009683;28;20210;-89
2023/06/08 01:39:29;;;;;;;8.27;7.47;;;;;;;18.34;58.34;95411.66;5010226;28;20226;-89
2023/06/08 01:42:05;;;;;;;10.00;7.57;;;;;;;18.20;58.75;95410.31;5010760;28;20206;-89
2023/06/08 01:45:08;;;;;;;;;;;;;;;;;;;;;
2023/06/08 01:47:50;;;;;;;7.93;7.22;;;;;;;17.80;60.13;95420.63;5009426;28;20236;-88
2023/06/08 01:50:39;;;;;;;8.30;7.43;;;;;;;17.89;60.18;95414.06;4996185;28;20223;-89
2023/06/08 01:53:24;;;;;;;;;;;;;;;;;;;;;
2023/06/08 01:56:02;;;;;;;;;;;;;;;;;;;;;
2023/06/08 01:58:38;;;;;;;8.10;7.40;;;;;;;17.83;60.32;95402.72;4990274;28;20574;-88
2023/06/08 02:01:07;;;;;;;8.70;7.97;;;;;;;17.90;59.43;95403.41;4998417;28;20199;-87
2023/06/08 02:03:41;;;;;;;8.90;8.02;;;;;;;17.96;59.38;95401.72;5009621;28;20230;-90
2023/06/08 02:06:16;;;;;;;7.70;7.00;;;;;;;17.94;59.89;95399.31;5009828;28;20602;-90
2023/06/08 02:11:36;;;;;;;7.75;7.15;;;;;;;18.12;59.60;95397.63;4972101;28;20198;-90
2023/06/08 02:14:11;;;;;;;8.68;7.97;;;;;;;17.97;59.14;95402.50;4995387;28;20232;-90
2023/06/08 02:16:40;;;;;;;8.60;7.70;;;;;;;17.92;59.80;95395.34;5009181;28;20237;-89
2023/06/08 02:19:12;;;;;;;8.88;8.07;;;;;;;17.88;59.88;95391.66;5009575;28;20234;-90
2023/06/08 02:21:45;;;;;;;8.38;7.63;;;;;;;17.94;59.44;95395.94;5009044;28;20194;-89
2023/06/08 02:24:12;;;;;;;8.32;7.63;;;;;;;17.86;60.66;95397.06;5009394;28;20282;-89
2023/06/08 02:26:51;;;;;;;8.40;7.60;;;;;;;17.81;60.42;95396.97;5009262;28;20219;-89
2023/06/08 02:29:37;;;;;;;9.60;7.88;;;;;;;17.85;60.27;95402.50;5009491;28;20648;-89
2023/06/08 02:32:06;;;;;;;7.72;7.03;;;;;;;17.84;59.92;95404.31;5008708;28;20202;-89
2023/06/08 02:34:56;;;;;;;8.40;7.70;;;;;;;17.86;59.83;95404.09;5008947;28;20230;-89
2023/06/08 02:37:26;;;;;;;9.35;8.10;;;;;;;17.81;60.13;95396.97;5008572;28;20199;-89
2023/06/08 02:40:00;;;;;;;8.23;7.53;;;;;;;17.83;59.73;95394.13;5008434;28;20254;-89
2023/06/08 02:42:52;;;;;;;8.32;7.53;;;;;;;17.78;60.32;95394.81;5007584;28;20292;-89
2023/06/08 02:45:41;;;;;;;9.38;8.48;;;;;;;17.64;60.68;95395.22;4988835;28;20218;-89
2023/06/08 02:48:16;;;;;;;8.52;7.60;;;;;;;17.68;60.32;95388.56;5008083;28;20850;-89
2023/06/08 02:50:48;;;;;;;8.98;8.07;;;;;;;17.75;60.27;95391.84;5005392;28;20251;-89
2023/06/08 02:53:33;;;;;;;8.57;7.78;;;;;;;17.80;60.39;95391.97;5020867;28;20198;-89
2023/06/08 02:56:15;;;;;;;8.95;8.15;;;;;;;17.75;60.35;95384.03;5007170;28;20199;-89
2023/06/08 02:58:59;;;;;;;8.77;7.97;;;;;;;17.71;60.88;95386.28;5008804;28;20258;-89
2023/06/08 03:01:36;;;;;;;9.23;7.57;;;;;;;17.71;60.69;95390.69;4993527;28;20199;-90
2023/06/08 03:04:12;;;;;;;8.35;7.65;;;;;;;17.68;60.39;95401.59;5009042;28;20292;-89
2023/06/08 03:06:53;;;;;;;9.20;8.32;;;;;;;17.67;60.44;95394.81;5000698;28;20321;-89
2023/06/08 03:15:02;;;;;;;8.73;7.93;;;;;;;17.75;60.02;95390.03;5005228;28;20210;-89
2023/06/08 03:21:28;;;;;;;9.70;8.82;;;;;;;17.84;59.75;95398.31;4997796;28;20199;-90
2023/06/08 03:24:01;;;;;;;9.13;8.25;;;;;;;17.85;59.53;95405.91;4998680;28;20591;-89
2023/06/08 03:26:31;;;;;;;8.60;7.80;;;;;;;17.61;60.31;95404.25;4999007;28;20643;-90
2023/06/08 03:39:27;;;;;;;9.30;8.50;;;;;;;17.35;62.04;95420.28;4938912;28;20209;-92
2023/06/08 03:42:27;;;;;;;9.35;8.45;;;;;;;17.41;61.19;95428.00;4959851;28;20836;-91
2023/06/08 03:51:43;;;;;;;9.80;8.68;;;;;;;17.60;61.04;95420.91;4831625;29;20812;-91
2023/06/08 04:16:49;;;;;;;;;;;;;;;;;;;;;
2023/06/08 04:22:57;;;;;;;9.32;8.52;;;;;;;17.67;62.50;95419.03;5015498;28;20257;-92
2023/06/08 04:39:01;;;;;;;9.90;8.55;;;;;;;18.15;60.84;95431.03;5014195;28;20210;-91
2023/06/08 04:49:04;;;;;;;10.25;9.15;;;;;;;18.39;59.29;95439.66;4973463;28;20227;-92
2023/06/08 05:31:44;;;;;;;;;;;;;;;;;;;;;
2023/06/08 05:40:23;;;;;;;7.65;6.95;;;;;;;19.25;55.57;95438.75;6249360;22;20215;-91
2023/06/08 05:47:08;;;;;;;7.10;6.40;;;;;;;19.05;55.68;95441.03;6125049;23;20633;-92
2023/06/08 06:04:51;;;;;;;6.38;5.88;;;;;;;19.55;54.51;95441.16;6220426;23;20620;-90
2023/06/08 06:10:47;;;;;;;6.88;6.22;;;;;;;19.62;54.81;95442.59;6203414;23;20197;-90
2023/06/08 06:14:08;;;;;;;6.68;6.10;;;;;;;19.64;54.35;95435.28;6222365;23;20170;-91
2023/06/08 06:17:04;;;;;;;6.90;6.30;;;;;;;19.42;54.71;95438.81;6151444;23;20641;-91
2023/06/08 06:22:52;;;;;;;7.38;6.03;;;;;;;19.41;54.51;95432.78;6032494;23;20176;-92
2023/06/08 06:39:25;;;;;;;6.30;5.70;;;;;;;20.23;51.48;95435.66;6127329;23;20177;-90
2023/06/08 06:56:22;;;;;;;6.30;5.22;;;;;;;20.67;50.52;95433.94;5839329;24;20214;-90
2023/06/08 07:01:50;;;;;;;7.43;5.13;;;;;;;20.42;51.03;95445.88;6199273;23;20173;-91
2023/06/08 07:07:57;;;;;;;;;;;;;;;;;;;;;
2023/06/08 07:29:31;;;;;;;6.25;4.63;;;;;;;21.18;47.15;95433.69;6160614;23;20184;-91
2023/06/08 07:32:28;;;;;;;10.20;5.32;;;;;;;21.17;47.46;95443.38;6243245;23;20570;-91
2023/06/08 07:42:07;;;;;;;5.43;4.82;;;;;;;21.42;46.82;95442.09;6224011;22;20227;-92
2023/06/08 08:10:38;;;;;;;6.35;5.30;;;;;;;22.64;45.39;95428.06;6147358;23;20208;-93
2023/06/08 08:22:21;;;;;;;7.38;5.57;;;;;;;23.36;46.21;95414.13;6087402;23;20180;-92
2023/06/08 08:39:39;;;;;;;;;;;;;;;;;;;;;
2023/06/08 09:24:47;;;;;;;;;;;;;;;;;;;;;
2023/06/08 09:38:18;;;;;;;5.38;4.85;;;;;;;26.24;41.96;95381.63;5821337;24;20205;-92
2023/06/08 10:01:35;;;;;;;4.18;3.88;;;;;;;27.11;41.26;95364.53;6148306;23;20265;-91
2023/06/08 10:05:00;;;;;;;4.85;4.40;;;;;;;27.00;40.06;95363.06;6183912;23;20180;-92
2023/06/08 10:11:39;;;;;;;4.93;4.38;;;;;;;26.70;41.42;95369.53;6152828;23;20189;-93
2023/06/08 10:17:47;;;;;;;4.88;4.47;;;;;;;26.62;40.91;95350.88;6185532;23;20197;-91
2023/06/08 10:20:43;;;;;;;4.93;4.53;;;;;;;26.97;40.60;95349.63;6184723;23;20196;-92
2023/06/08 10:50:11;;;;;;;4.20;3.80;;;;;;;28.01;37.28;95321.03;6100950;23;20203;-92
2023/06/08 11:00:08;;;;;;;3.70;3.50;;;;;;;28.45;35.80;95312.53;6001257;23;20200;-92
2023/06/08 11:02:54;;;;;;;4.57;4.18;;;;;;;28.37;34.87;95323.03;6058768;23;20264;-91
2023/06/08 11:06:07;;;;;;;4.00;3.70;;;;;;;28.24;33.73;95324.59;6088584;23;20180;-92
2023/06/08 11:14:25;;;;;;;;;;;;;;;;;;;;;
2023/06/08 11:17:32;;;;;;;4.55;4.10;;;;;;;28.51;33.47;95313.97;6184100;23;20174;-92
2023/06/08 12:19:08;;;;;;;3.88;3.58;;;;;;;27.14;36.44;95286.47;6064937;23;20275;-90
2023/06/08 12:25:34;;;;;;;4.63;4.03;;;;;;;27.47;35.47;95272.22;6154942;23;20230;-91
2023/06/08 12:50:42;;;;;;;3.80;3.53;;;;;;;26.01;39.21;95265.22;5661672;25;20286;-93
2023/06/08 12:53:15;;;;;;;4.90;3.90;;;;;;;25.86;40.08;95265.38;5783784;24;20229;-89
2023/06/08 12:55:42;;;;;;;4.18;3.88;;;;;;;25.88;39.75;95263.25;5786297;24;20211;-90
2023/06/08 13:02:09;;;;;;;4.10;3.80;;;;;;;25.84;40.11;95251.69;5804839;24;20320;-91
2023/06/08 13:04:40;;;;;;;3.65;3.45;;;;;;;25.74;40.04;95249.97;5918896;24;20176;-89
2023/06/08 13:14:00;;;;;;;4.25;3.95;;;;;;;25.57;40.90;95260.13;6079154;23;20551;-91
2023/06/08 13:17:00;;;;;;;4.70;4.15;;;;;;;25.51;41.99;95263.09;6088450;23;20255;-91
2023/06/08 13:19:44;;;;;;;6.60;4.53;;;;;;;25.50;43.07;95257.03;6089089;23;20512;-86
2023/06/08 13:26:23;;;;;;;11.75;6.45;;;;;;;24.57;54.82;95309.81;6149695;23;20492;-86
2023/06/08 13:46:19;;;;;;;5.25;4.85;;;;;;;21.65;58.40;95281.94;5935197;23;20334;-87
2023/06/08 13:48:45;;;;;;;5.28;4.78;;;;;;;21.62;59.83;95283.22;5947103;24;20175;-89
2023/06/08 13:55:25;;;;;;;5.55;4.85;;;;;;;21.83;58.53;95270.25;6030840;23;20174;-90
2023/06/08 14:01:21;;;;;;;49.65;32.50;;;;;;;22.49;62.84;95262.69;5999257;23;20172;-88
2023/06/08 14:28:04;;;;;;;5.35;4.85;;;;;;;25.37;46.43;95216.28;5921022;23;20199;-89
2023/06/08 14:30:36;;;;;;;6.00;4.95;;;;;;;25.51;48.39;95221.69;6060018;23;20200;-89
2023/06/08 15:07:42;;;;;;;6.30;5.70;;;;;;;26.52;43.81;95192.56;5732856;25;20196;-88
2023/06/08 15:20:57;;;;;;;4.45;4.05;;;;;;;26.45;37.03;95172.56;5811027;24;20285;-90
2023/06/08 15:23:46;;;;;;;5.15;4.68;;;;;;;26.53;40.93;95173.00;5912866;24;20203;-91
2023/06/08 15:54:12;;;;;;;5.17;3.83;;;;;;;26.23;35.99;95142.50;5690244;24;20682;-93
2023/06/08 15:56:42;;;;;;;4.45;4.15;;;;;;;26.17;36.29;95149.69;5867376;24;20499;-89
2023/06/08 15:59:15;;;;;;;4.30;3.90;;;;;;;26.19;36.22;95142.28;5973858;23;20203;-89
2023/06/08 16:01:47;;;;;;;3.92;3.63;;;;;;;26.26;36.52;95139.28;6105992;23;20171;-91
2023/06/08 16:04:21;;;;;;;4.00;3.70;;;;;;;26.32;34.46;95131.06;6120907;23;20179;-91
2023/06/08 16:06:59;;;;;;;4.75;4.28;;;;;;;26.35;34.02;95127.06;6119650;23;20638;-90
2023/06/08 16:09:49;;;;;;;5.85;4.28;;;;;;;26.41;36.14;95123.25;6120386;23;20202;-89
2023/06/08 16:12:32;;;;;;;4.40;4.10;;;;;;;26.48;36.55;95115.75;6120460;23;20524;-91
2023/06/08 16:15:30;;;;;;;10.60;9.73;;;;;;;26.43;35.97;95116.63;6121453;23;20187;-90
2023/06/08 16:21:17;;;;;;;;;;;;;;;;;;;;;
2023/06/08 16:24:28;;;;;;;5.03;4.60;;;;;;;26.37;37.18;95106.41;6150604;23;20143;-91
2023/06/08 16:30:27;;;;;;;4.43;4.13;;;;;;;26.34;38.57;95099.09;6145949;23;20269;-92
2023/06/08 16:33:09;;;;;;;4.93;4.55;;;;;;;26.20;38.82;95090.28;6134034;23;20179;-91
2023/06/08 16:35:50;;;;;;;4.55;4.15;;;;;;;26.08;37.20;95090.72;6149518;23;20541;-89
2023/06/08 16:38:29;;;;;;;;;;;;;;;;;;;;;
2023/06/08 16:41:24;;;;;;;;;;;;;;;;;;;;;
2023/06/08 16:44:04;;;;;;;4.20;3.90;;;;;;;26.05;37.06;95078.09;6147938;23;20257;-89
2023/06/08 16:46:38;;;;;;;4.82;4.03;;;;;;;25.93;36.07;95075.13;6149001;23;20238;-89
2023/06/08 16:49:09;;;;;;;4.43;4.03;;;;;;;25.82;37.38;95079.72;6149718;23;20245;-88
2023/06/08 16:51:36;;;;;;;4.22;3.90;;;;;;;25.68;37.25;95084.94;6149360;23;20166;-89
2023/06/08 16:54:04;;;;;;;3.90;3.60;;;;;;;25.57;37.25;95087.97;6149007;23;20179;-89
2023/06/08 16:57:02;;;;;;;4.35;3.90;;;;;;;25.48;37.16;95083.31;6149143;23;20178;-89
2023/06/08 17:02:35;;;;;;;4.05;3.75;;;;;;;25.44;38.02;95092.03;6147069;23;20245;-90
2023/06/08 17:05:22;;;;;;;3.92;3.60;;;;;;;25.44;38.53;95094.69;6149679;23;20489;-91
2023/06/08 17:08:01;;;;;;;4.03;3.58;;;;;;;25.32;39.13;95100.38;6148915;23;20185;-91
2023/06/08 17:10:36;;;;;;;4.22;3.92;;;;;;;25.22;39.52;95108.38;6149331;23;20545;-91
2023/06/08 17:13:05;;;;;;;4.07;3.72;;;;;;;25.19;39.75;95108.94;6148469;23;20642;-91
2023/06/08 17:15:33;;;;;;;7.68;4.18;;;;;;;25.13;39.94;95110.06;6148063;23;20183;-91
2023/06/08 17:18:01;;;;;;;4.10;3.80;;;;;;;25.13;40.20;95110.06;6148670;23;20634;-89
2023/06/08 17:20:30;;;;;;;4.25;3.90;;;;;;;25.13;40.78;95110.06;6148165;23;20547;-90
2023/06/08 17:22:59;;;;;;;4.90;4.32;;;;;;;25.10;40.97;95107.97;6148342;23;20495;-91
2023/06/08 17:25:26;;;;;;;4.28;3.88;;;;;;;25.05;41.44;95111.44;6148105;23;20195;-93
2023/06/08 17:27:54;;;;;;;8.95;8.15;;;;;;;24.97;41.76;95117.34;6148202;23;20230;-90
2023/06/08 17:30:24;;;;;;;33.38;30.27;;;;;;;24.91;41.58;95121.03;6145777;23;20203;-89
2023/06/08 17:33:05;;;;;;;12.95;10.32;;;;;;;24.79;42.53;95123.25;6147417;23;20190;-91
2023/06/08 17:35:32;;;;;;;5.80;4.78;;;;;;;24.76;41.37;95124.59;6148460;23;20182;-89
2023/06/08 17:38:00;;;;;;;4.80;4.18;;;;;;;24.65;41.78;95128.38;6149202;23;20168;-89
2023/06/08 17:40:27;;;;;;;6.07;4.38;;;;;;;24.65;41.66;95130.22;6147494;23;20205;-89
2023/06/08 17:42:58;;;;;;;4.60;4.20;;;;;;;24.63;41.97;95127.84;6146927;23;20198;-90
2023/06/08 17:45:24;;;;;;;4.38;4.07;;;;;;;24.65;41.61;95131.00;6147868;23;20167;-91
2023/06/08 17:47:51;;;;;;;3.88;3.58;;;;;;;24.67;41.89;95130.72;6147787;23;20166;-89
2023/06/08 17:50:18;;;;;;;4.47;4.07;;;;;;;24.62;41.97;95134.19;6147544;23;20219;-90
2023/06/08 17:53:05;;;;;;;4.60;4.30;;;;;;;24.65;42.94;95131.00;6147618;23;20187;-91
2023/06/08 17:55:38;;;;;;;4.68;4.28;;;;;;;24.67;42.56;95135.97;6148049;23;20929;-91
2023/06/08 17:58:11;;;;;;;4.43;4.10;;;;;;;24.70;42.75;95138.06;6147518;23;20201;-90
2023/06/08 18:00:40;;;;;;;4.72;4.35;;;;;;;24.72;42.98;95157.03;6149124;23;20201;-89
2023/06/08 18:03:07;;;;;;;4.82;4.30;;;;;;;24.55;45.67;95170.56;6149677;23;20178;-89
2023/06/08 18:05:52;;;;;;;;;;;;;;;;;;;;;
2023/06/08 18:08:36;;;;;;;5.65;4.43;;;;;;;23.88;49.37;95165.91;6151273;23;20168;-90
2023/06/08 18:11:05;;;;;;;7.15;4.85;;;;;;;23.64;50.80;95184.19;6150734;23;20195;-90
2023/06/08 18:13:32;;;;;;;8.73;7.38;;;;;;;23.56;50.96;95193.38;6150818;23;20171;-89
2023/06/08 18:15:59;;;;;;;7.22;5.13;;;;;;;23.48;51.55;95199.16;6149765;23;20174;-90
2023/06/08 18:18:25;;;;;;;4.50;4.20;;;;;;;23.21;51.06;95212.59;6151093;23;20178;-89
2023/06/08 18:20:58;;;;;;;5.57;4.22;;;;;;;22.93;51.96;95227.06;6151387;23;20199;-91
2023/06/08 18:23:27;;;;;;;6.00;4.50;;;;;;;22.84;51.47;95227.84;6150631;23;20184;-89
2023/06/08 18:25:58;;;;;;;6.75;4.40;;;;;;;22.65;51.84;95232.78;6150639;23;20465;-91
2023/06/08 18:28:29;;;;;;;4.40;4.00;;;;;;;22.47;52.36;95235.91;6150995;23;20447;-89
2023/06/08 18:30:56;;;;;;;4.93;4.00;;;;;;;22.26;52.88;95243.72;6150407;23;20231;-90
2023/06/08 18:33:25;;;;;;;4.40;3.97;;;;;;;22.06;53.45;95259.38;6150473;23;20183;-89
2023/06/08 18:35:56;;;;;;;6.57;4.20;;;;;;;21.96;53.64;95270.56;6149845;23;20181;-92
2023/06/08 18:38:24;;;;;;;4.47;4.07;;;;;;;21.92;53.70;95274.75;6150606;23;20175;-90
2023/06/08 18:40:51;;;;;;;5.15;3.97;;;;;;;21.86;54.20;95280.22;6150667;23;20254;-89
2023/06/08 18:43:19;;;;;;;5.93;4.15;;;;;;;21.91;53.13;95288.91;6149385;23;20186;-88
2023/06/08 18:45:56;;;;;;;4.28;3.83;;;;;;;21.99;53.55;95303.34;6149847;23;20187;-89
2023/06/08 18:48:22;;;;;;;5.00;4.57;;;;;;;;;;6151409;23;20170;-88
2023/06/08 18:50:49;;;;;;;4.30;4.00;;;;;;;21.90;53.45;95316.19;6149568;23;20191;-88
2023/06/08 18:53:17;;;;;;;4.53;3.42;;;;;;;21.91;52.81;95323.00;6149961;23;20653;-88
2023/06/08 18:55:43;;;;;;;3.92;3.45;;;;;;;21.85;52.44;95320.59;6150037;23;20175;-87
2023/06/08 18:58:10;;;;;;;4.10;3.78;;;;;;;21.81;52.86;95314.28;6151011;23;20175;-87
2023/06/08 19:00:36;;;;;;;4.03;3.70;;;;;;;21.72;53.13;95316.59;6151058;23;20199;-89
2023/06/08 19:03:02;;;;;;;3.90;3.60;;;;;;;21.67;53.57;95312.09;6151043;23;20558;-88
2023/06/08 19:05:29;;;;;;;3.90;3.58;;;;;;;21.67;53.98;95316.56;6150296;23;20179;-88
2023/06/08 19:07:55;;;;;;;5.55;3.63;;;;;;;21.62;54.18;95317.28;6151214;23;20245;-88
2023/06/08 19:10:23;;;;;;;6.38;4.22;;;;;;;21.57;54.66;95332.97;6151155;23;20201;-87
2023/06/08 19:12:50;;;;;;;7.90;3.85;;;;;;;21.46;54.76;95338.41;6151122;23;20179;-88
2023/06/08 19:15:16;;;;;;;5.47;4.38;;;;;;;21.41;55.34;95354.84;6151583;23;20183;-88
2023/06/08 19:17:43;;;;;;;4.35;3.90;;;;;;;21.29;56.16;95349.81;6151677;23;20179;-89
2023/06/08 19:20:11;;;;;;;5.53;4.70;;;;;;;21.32;56.19;95349.31;6151005;23;20203;-88
2023/06/08 19:22:38;;;;;;;5.10;4.65;;;;;;;21.36;56.77;95334.66;6151837;23;20188;-88
2023/06/08 19:25:05;;;;;;;5.05;4.57;;;;;;;21.28;57.73;95323.84;6151672;23;20182;-87
2023/06/08 19:27:33;;;;;;;5.18;4.68;;;;;;;21.28;58.67;95327.25;6150943;23;20210;-87
2023/06/08 19:29:59;;;;;;;5.38;4.53;;;;;;;21.29;59.02;95318.38;6151356;23;20201;-87
2023/06/08 19:32:26;;;;;;;7.32;4.95;;;;;;;21.27;59.95;95327.50;6152351;23;20257;-88
2023/06/08 19:34:52;;;;;;;5.55;4.63;;;;;;;21.16;60.96;95331.06;6151432;23;20175;-88
2023/06/08 19:37:18;;;;;;;6.90;4.07;;;;;;;21.12;62.23;95328.16;6152134;23;20183;-88
2023/06/08 19:39:45;;;;;;;5.28;4.22;;;;;;;21.14;63.11;95338.38;6151071;23;20622;-88
2023/06/08 19:42:11;;;;;;;5.07;4.55;;;;;;;21.04;64.31;95337.22;6151686;23;20178;-88
2023/06/08 19:44:39;;;;;;;5.43;4.85;;;;;;;20.98;64.92;95340.81;6151340;23;20186;-88
2023/06/08 19:47:07;;;;;;;6.07;5.47;;;;;;;21.03;63.96;95340.88;6151284;23;20182;-87
2023/06/08 19:49:33;;;;;;;6.53;5.85;;;;;;;21.02;64.99;95334.06;6151084;23;20194;-87
2023/06/08 19:52:02;;;;;;;20.35;18.35;;;;;;;21.13;63.99;95352.50;6151898;23;20186;-89
2023/06/08 19:54:29;;;;;;;11.75;10.65;;;;;;;21.22;63.87;95343.97;6151032;23;20179;-88
2023/06/08 19:56:56;;;;;;;5.32;4.82;;;;;;;21.11;64.21;95337.03;6150949;23;20181;-88
2023/06/08 19:59:24;;;;;;;5.22;4.72;;;;;;;20.99;65.17;95331.94;6151000;23;20261;-88
2023/06/08 20:01:52;;;;;;;4.97;4.53;;;;;;;20.98;64.53;95340.81;6151236;23;20660;-87
2023/06/08 20:04:19;;;;;;;5.03;4.63;;;;;;;20.95;63.10;95336.13;6151005;23;20231;-87
2023/06/08 20:06:47;;;;;;;4.63;4.10;;;;;;;20.75;61.35;95340.34;6150736;23;20192;-87
2023/06/08 20:09:14;;;;;;;4.30;3.90;;;;;;;20.75;61.67;95330.66;6151591;23;20199;-88
2023/06/08 20:11:41;;;;;;;7.53;6.80;;;;;;;20.71;61.76;95318.31;6150592;23;20230;-89
2023/06/08 20:14:07;;;;;;;10.00;8.30;;;;;;;20.74;61.55;95304.75;6151201;23;20174;-87
2023/06/08 20:16:33;;;;;;;6.88;6.15;;;;;;;20.76;60.74;95300.84;6151078;23;20814;-88
2023/06/08 20:19:01;;;;;;;6.80;5.30;;;;;;;20.73;60.35;95290.88;6150629;23;20666;-88
2023/06/08 20:21:28;;;;;;;11.20;9.45;;;;;;;20.77;60.55;95294.59;6151815;23;20190;-88
2023/06/08 20:23:55;;;;;;;8.32;7.43;;;;;;;20.59;60.94;95295.69;6151245;23;20178;-88
2023/06/08 20:26:22;;;;;;;5.80;5.30;;;;;;;20.53;59.74;95301.91;6150965;23;20175;-88
2023/06/08 20:28:48;;;;;;;3.85;3.55;;;;;;;20.35;59.26;95312.66;6150695;23;20221;-87
2023/06/08 20:31:15;;;;;;;4.40;3.67;;;;;;;20.35;59.56;95325.75;6150925;23;20259;-87
2023/06/08 20:33:41;;;;;;;4.10;3.80;;;;;;;20.34;59.90;95327.56;6149793;23;20654;-90
2023/06/08 20:36:09;;;;;;;4.22;3.92;;;;;;;20.32;59.52;95334.88;6150349;23;20182;-87
2023/06/08 20:38:41;;;;;;;4.10;3.70;;;;;;;20.42;59.38;95338.66;6151253;23;20179;-87
2023/06/08 20:41:07;;;;;;;3.17;2.97;;;;;;;20.48;58.15;95341.09;6150795;23;20532;-89
2023/06/08 20:43:34;;;;;;;5.30;2.92;;;;;;;20.45;57.66;95354.66;6150328;23;20225;-87
2023/06/08 20:46:02;;;;;;;3.00;2.70;;;;;;;20.37;56.57;95349.88;6151096;23;20663;-87
2023/06/08 20:48:29;;;;;;;3.33;2.33;;;;;;;20.34;56.37;95355.53;6150882;23;20179;-88
2023/06/08 20:50:55;;;;;;;2.65;2.45;;;;;;;20.27;54.97;95354.91;6151514;23;20213;-88
2023/06/08 20:53:26;;;;;;;2.47;2.28;;;;;;;20.28;55.05;95361.72;6152267;23;20182;-87
2023/06/08 20:55:53;;;;;;;2.40;2.20;;;;;;;20.33;54.50;95367.03;6151015;23;20159;-89
2023/06/08 20:58:19;;;;;;;2.20;2.10;;;;;;;20.23;54.33;95361.66;6152960;23;20186;-88
2023/06/08 21:00:46;;;;;;;2.85;2.63;;;;;;;20.21;53.78;95353.25;6153267;23;20203;-88
2023/06/08 21:03:14;;;;;;;4.18;3.28;;;;;;;20.19;53.36;95357.97;6152718;23;20186;-87
2023/06/08 21:05:42;;;;;;;4.68;4.20;;;;;;;20.18;53.33;95351.94;6152545;23;20186;-88
2023/06/08 21:08:09;;;;;;;3.60;3.30;;;;;;;20.17;53.39;95357.41;6152322;23;20214;-87
2023/06/08 21:10:37;;;;;;;3.28;2.97;;;;;;;20.11;53.19;95353.16;6151426;23;20203;-88
2023/06/08 21:13:03;;;;;;;3.08;2.78;;;;;;;20.00;53.51;95354.84;6152276;23;20186;-88
2023/06/08 21:15:30;;;;;;;4.20;3.80;;;;;;;19.90;54.20;95352.88;6152701;23;20488;-87
2023/06/08 21:17:56;;;;;;;6.82;5.63;;;;;;;19.83;54.17;95362.69;6151945;23;20181;-88
2023/06/08 21:20:23;;;;;;;3.80;3.50;;;;;;;19.89;54.24;95361.75;6152363;23;20209;-88
2023/06/08 21:22:49;;;;;;;3.95;3.35;;;;;;;19.95;54.06;95362.59;6151482;23;20186;-88
2023/06/08 21:25:16;;;;;;;2.60;2.40;;;;;;;19.92;53.88;95357.84;6151153;23;20186;-87
2023/06/08 21:27:43;;;;;;;1.90;1.80;;;;;;;19.95;53.90;95360.78;6151927;23;20186;-88
2023/06/08 21:30:10;;;;;;;2.60;2.40;;;;;;;19.91;54.38;95364.13;6151659;23;20191;-88
2023/06/08 21:32:37;;;;;;;2.35;2.00;;;;;;;19.89;54.54;95358.31;6151885;23;20179;-87
2023/06/08 21:35:04;;;;;;;2.47;2.28;;;;;;;19.96;54.20;95353.75;6150539;23;20175;-87
2023/06/08 21:37:30;;;;;;;2.38;2.13;;;;;;;19.88;54.25;95362.75;6151436;23;20701;-87
2023/06/08 21:39:56;;;;;;;2.50;2.30;;;;;;;19.99;54.17;95356.66;6152603;23;20206;-88
2023/06/08 21:42:23;;;;;;;2.40;2.20;;;;;;;20.11;53.85;95361.00;6152651;23;20178;-88
2023/06/08 21:44:54;;;;;;;2.08;1.98;;;;;;;20.08;53.56;95358.84;6153770;23;20179;-88
2023/06/08 21:47:20;;;;;;;2.67;2.47;;;;;;;19.93;54.13;95348.97;6152955;23;20163;-90
2023/06/08 21:49:47;;;;;;;3.20;2.90;;;;;;;19.89;54.43;95347.88;6152322;23;20270;-87
2023/06/08 21:52:13;;;;;;;2.33;2.05;;;;;;;19.97;54.55;95348.28;6151939;23;20241;-89
2023/06/08 21:54:40;;;;;;;2.20;2.00;;;;;;;20.07;54.66;95355.44;6152556;23;20515;-89
2023/06/08 21:57:06;;;;;;;2.60;2.40;;;;;;;20.10;54.66;95352.34;6152340;23;20273;-87
2023/06/08 21:59:33;;;;;;;2.60;2.40;;;;;;;20.10;55.07;95349.75;6152530;23;20199;-87
2023/06/08 22:02:02;;;;;;;2.30;2.10;;;;;;;20.08;55.54;95353.63;6152254;23;20182;-88
2023/06/08 22:04:28;;;;;;;2.45;2.25;;;;;;;20.04;55.91;95342.84;6152941;23;20533;-88
2023/06/08 22:06:55;;;;;;;2.63;2.42;;;;;;;20.13;55.12;95343.25;6152794;23;20179;-87
2023/06/08 22:09:21;;;;;;;2.25;2.13;;;;;;;20.18;54.91;95351.94;6152817;23;20257;-88
2023/06/08 22:11:49;;;;;;;2.63;2.42;;;;;;;20.12;55.13;95347.69;6152737;23;20175;-87
2023/06/08 22:14:16;;;;;;;2.70;2.20;;;;;;;20.09;55.26;95356.00;6152588;23;20186;-87
2023/06/08 22:16:42;;;;;;;2.85;2.42;;;;;;;20.13;55.13;95351.88;6152072;23;20254;-89
2023/06/08 22:19:10;;;;;;;3.00;2.63;;;;;;;20.11;55.55;95358.38;6152682;23;20199;-89
2023/06/08 22:21:37;;;;;;;2.80;2.60;;;;;;;20.11;55.55;95367.00;6152614;23;20179;-89
2023/06/08 22:24:04;;;;;;;3.65;2.78;;;;;;;20.07;55.89;95354.66;6153289;23;20593;-90
2023/06/08 22:26:31;;;;;;;3.10;2.80;;;;;;;20.00;56.36;95360.88;6153335;23;20175;-88
2023/06/08 22:28:57;;;;;;;3.53;2.90;;;;;;;19.94;57.53;95358.41;6153301;23;20178;-87
2023/06/08 22:31:26;;;;;;;3.25;2.72;;;;;;;19.88;57.87;95354.13;6152833;23;20182;-88
2023/06/08 22:33:52;;;;;;;3.08;2.88;;;;;;;19.85;57.95;95358.00;6153093;23;20174;-88
2023/06/08 22:36:23;;;;;;;2.65;2.45;;;;;;;19.88;57.38;95360.16;6152913;23;20641;-88
2023/06/08 22:38:49;;;;;;;3.20;2.97;;;;;;;19.86;57.93;95359.59;6152276;23;20243;-88
2023/06/08 22:41:16;;;;;;;3.30;3.00;;;;;;;19.80;58.04;95355.34;6153069;23;20266;-87